createdAt,value
2023-11-23T00:01:34.806Z,97997.84
2023-11-23T00:04:02.536Z,98008.56
2023-11-23T00:06:30.122Z,98018.66
2023-11-23T00:08:57.772Z,98003.06
2023-11-23T00:11:26.685Z,98018.94
2023-11-23T00:13:54.295Z,98013.81
2023-11-23T00:16:21.868Z,98006.69
2023-11-23T00:18:49.605Z,98011.84
2023-11-23T00:21:17.331Z,98021.63
2023-11-23T00:23:44.926Z,98023.28
2023-11-23T00:26:14.670Z,98026.41
2023-11-23T00:28:43.564Z,98027.22
2023-11-23T00:31:11.138Z,98024.97
2023-11-23T00:33:38.854Z,98024.78
2023-11-23T00:36:07.330Z,98014.22
2023-11-23T00:38:35.381Z,98024.91
2023-11-23T00:41:03.006Z,98019.91
2023-11-23T00:43:30.634Z,98013.09
2023-11-23T00:45:59.555Z,98014.50
2023-11-23T00:48:28.324Z,98015.84
2023-11-23T00:50:56.307Z,98020.69
2023-11-23T00:53:23.917Z,98019.84
2023-11-23T00:55:51.537Z,98014.09
2023-11-23T00:58:19.055Z,98015.19
2023-11-23T01:00:46.704Z,98018.09
2023-11-23T01:03:15.746Z,98013.63
2023-11-23T01:05:45.095Z,98016.78
2023-11-23T01:08:12.890Z,98024.31
2023-11-23T01:10:40.437Z,98029.47
2023-11-23T01:13:08.055Z,98024.94
2023-11-23T01:15:35.609Z,98019.50
2023-11-23T01:18:03.275Z,98010.94
2023-11-23T01:20:32.266Z,97996.31
2023-11-23T01:22:59.879Z,98003.88
2023-11-23T01:25:27.454Z,98005.38
2023-11-23T01:27:56.173Z,97995.97
2023-11-23T01:30:23.767Z,98010.63
2023-11-23T01:32:51.528Z,98016.25
2023-11-23T01:35:21.809Z,98023.88
2023-11-23T01:37:51.087Z,98009.28
2023-11-23T01:40:18.705Z,97987.66
2023-11-23T01:42:48.818Z,97980.38
2023-11-23T01:45:16.755Z,97972.16
2023-11-23T01:47:46.576Z,97970.00
2023-11-23T01:50:15.413Z,97967.41
2023-11-23T01:52:43.666Z,97958.94
2023-11-23T01:55:13.621Z,97956.00
2023-11-23T01:57:41.722Z,97959.66
2023-11-23T02:00:10.826Z,97971.91
2023-11-23T02:02:38.516Z,97971.38
2023-11-23T02:05:06.736Z,97968.50
2023-11-23T02:07:35.160Z,97981.84
2023-11-23T02:10:02.816Z,97985.16
2023-11-23T02:12:32.062Z,97987.50
2023-11-23T02:15:01.216Z,97981.94
2023-11-23T02:17:31.693Z,97995.66
2023-11-23T02:19:59.398Z,98004.56
2023-11-23T02:22:27.997Z,98006.28
2023-11-23T02:24:56.932Z,98017.59
2023-11-23T02:27:24.609Z,98019.19
2023-11-23T02:29:52.193Z,98012.06
2023-11-23T02:32:39.414Z,98028.09
2023-11-23T02:35:07.901Z,98034.59
2023-11-23T02:37:35.452Z,98049.06
2023-11-23T02:40:05.156Z,98049.91
2023-11-23T02:42:32.741Z,98047.16
2023-11-23T02:45:00.739Z,98034.69
2023-11-23T02:47:28.506Z,98018.03
2023-11-23T02:49:56.137Z,97997.69
2023-11-23T02:52:23.901Z,97991.53
2023-11-23T02:54:51.591Z,97995.25
2023-11-23T02:57:20.538Z,97998.56
2023-11-23T02:59:48.142Z,97983.25
2023-11-23T03:02:15.747Z,97986.03
2023-11-23T03:04:43.384Z,97997.41
2023-11-23T03:07:10.986Z,98005.56
2023-11-23T03:09:38.703Z,97996.88
2023-11-23T03:12:06.700Z,97994.00
2023-11-23T03:14:35.864Z,97986.31
2023-11-23T03:17:04.118Z,97975.13
2023-11-23T03:19:31.773Z,97957.44
2023-11-23T03:21:59.716Z,97943.13
2023-11-23T03:24:27.403Z,97947.44
2023-11-23T03:26:55.117Z,97953.47
2023-11-23T03:29:23.625Z,97959.75
2023-11-23T03:31:52.813Z,97977.28
2023-11-23T03:34:20.435Z,97995.91
2023-11-23T03:36:48.043Z,98000.84
2023-11-23T03:39:15.846Z,97983.06
2023-11-23T03:41:43.513Z,98005.25
2023-11-23T03:44:11.117Z,97990.91
2023-11-23T03:46:38.693Z,97988.53
2023-11-23T03:49:07.684Z,97985.22
2023-11-23T03:51:35.228Z,97983.59
2023-11-23T03:54:03.966Z,97979.94
2023-11-23T03:56:31.884Z,97978.44
2023-11-23T03:58:59.540Z,97981.22
2023-11-23T04:01:27.220Z,97980.03
2023-11-23T04:03:54.928Z,97996.41
2023-11-23T04:06:24.140Z,97996.41
2023-11-23T04:08:51.775Z,97980.09
2023-11-23T04:11:19.379Z,97973.34
2023-11-23T04:13:47.724Z,97974.72
2023-11-23T04:16:15.396Z,97978.41
2023-11-23T04:18:45.476Z,97979.16
2023-11-23T04:21:12.975Z,97984.44
2023-11-23T04:23:42.224Z,97984.91
2023-11-23T04:26:09.846Z,97988.06
2023-11-23T04:28:38.159Z,97985.94
2023-11-23T04:31:06.275Z,98003.16
2023-11-23T04:33:34.368Z,97994.91
2023-11-23T04:36:02.477Z,97987.31
2023-11-23T04:38:30.106Z,97976.41
2023-11-23T04:40:58.984Z,97962.66
2023-11-23T04:43:26.628Z,97962.41
2023-11-23T04:45:54.214Z,97943.75
2023-11-23T04:48:22.458Z,97943.94
2023-11-23T04:50:51.133Z,97953.13
2023-11-23T04:53:19.371Z,97945.56
2023-11-23T04:55:47.572Z,97941.03
2023-11-23T04:58:16.496Z,97941.19
2023-11-23T05:00:44.083Z,97928.44
2023-11-23T05:03:11.732Z,97932.41
2023-11-23T05:05:39.356Z,97923.59
2023-11-23T05:08:06.970Z,97916.28
2023-11-23T05:10:34.644Z,97911.94
2023-11-23T05:13:02.231Z,97911.88
2023-11-23T05:15:31.156Z,97915.00
2023-11-23T05:17:59.283Z,97898.44
2023-11-23T05:20:26.872Z,97901.56
2023-11-23T05:22:54.525Z,97906.19
2023-11-23T05:25:22.281Z,97906.78
2023-11-23T05:27:49.908Z,97900.00
2023-11-23T05:30:17.593Z,97916.00
2023-11-23T05:32:47.244Z,97915.59
2023-11-23T05:35:14.949Z,97919.25
2023-11-23T05:37:42.476Z,97875.94
2023-11-23T05:40:13.895Z,97919.09
2023-11-23T05:42:47.676Z,97916.06
2023-11-23T05:45:21.525Z,97915.69
2023-11-23T05:47:50.552Z,97914.19
2023-11-23T05:50:18.150Z,97917.50
2023-11-23T05:52:46.740Z,97915.50
2023-11-23T05:55:16.364Z,97923.84
2023-11-23T05:57:43.948Z,97923.47
2023-11-23T06:00:12.697Z,97925.44
2023-11-23T06:02:42.582Z,97925.28
2023-11-23T06:05:12.046Z,97886.97
2023-11-23T06:07:39.677Z,97914.72
2023-11-23T06:10:08.894Z,97914.88
2023-11-23T06:12:36.579Z,97920.81
2023-11-23T06:15:05.007Z,97921.13
2023-11-23T06:17:32.756Z,97923.47
2023-11-23T06:20:00.476Z,97926.09
2023-11-23T06:22:29.392Z,97926.56
2023-11-23T06:24:57.078Z,97916.84
2023-11-23T06:27:24.818Z,97920.28
2023-11-23T06:29:53.629Z,97927.69
2023-11-23T06:32:21.221Z,97926.16
2023-11-23T06:34:48.895Z,97921.06
2023-11-23T06:37:16.724Z,97922.41
2023-11-23T06:39:45.648Z,97921.28
2023-11-23T06:42:13.220Z,97921.28
2023-11-23T06:44:40.773Z,97914.06
2023-11-23T06:47:08.351Z,97921.13
2023-11-23T06:49:36.268Z,97923.78
2023-11-23T06:52:04.695Z,97925.03
2023-11-23T06:54:33.392Z,97928.38
2023-11-23T06:57:02.584Z,97926.69
2023-11-23T06:59:30.994Z,97931.31
2023-11-23T07:01:58.713Z,97934.78
2023-11-23T07:04:26.426Z,97934.09
2023-11-23T07:06:54.184Z,97930.31
2023-11-23T07:09:22.431Z,97930.72
2023-11-23T07:11:50.697Z,97931.22
2023-11-23T07:14:19.741Z,97925.34
2023-11-23T07:16:47.727Z,97924.06
2023-11-23T07:19:15.343Z,97926.06
2023-11-23T07:21:42.933Z,97936.16
2023-11-23T07:24:11.233Z,97917.28
2023-11-23T07:26:38.832Z,97925.72
2023-11-23T07:29:06.763Z,97915.50
2023-11-23T07:31:35.785Z,97917.50
2023-11-23T07:34:04.101Z,97913.06
2023-11-23T07:36:31.767Z,97922.03
2023-11-23T07:38:59.644Z,97925.88
2023-11-23T07:41:27.278Z,97922.78
2023-11-23T07:43:58.857Z,97918.69
2023-11-23T07:46:27.141Z,97923.19
2023-11-23T07:48:56.173Z,97918.44
2023-11-23T07:51:23.776Z,97927.72
2023-11-23T07:53:51.416Z,97932.53
2023-11-23T07:56:19.540Z,97934.41
2023-11-23T07:58:47.796Z,97944.16
2023-11-23T08:01:15.331Z,97943.53
2023-11-23T08:03:43.116Z,97937.94
2023-11-23T08:06:12.201Z,97929.69
2023-11-23T08:08:39.756Z,97938.47
2023-11-23T08:11:08.037Z,97936.19
2023-11-23T08:13:36.103Z,97903.53
2023-11-23T08:16:05.403Z,97940.91
2023-11-23T08:18:40.265Z,97944.22
2023-11-23T08:21:15.783Z,97940.50
2023-11-23T08:23:43.541Z,97940.50
2023-11-23T08:26:12.067Z,97941.19
2023-11-23T08:28:39.714Z,97940.88
2023-11-23T08:31:08.774Z,97934.63
2023-11-23T08:33:36.384Z,97937.47
2023-11-23T08:36:04.025Z,97944.31
2023-11-23T08:38:33.010Z,97947.59
2023-11-23T08:41:01.734Z,97936.56
2023-11-23T08:43:29.531Z,97935.25
2023-11-23T08:45:57.089Z,97928.00
2023-11-23T08:48:24.765Z,97923.91
2023-11-23T08:50:52.435Z,97911.69
2023-11-23T08:53:20.044Z,97912.03
2023-11-23T08:55:51.255Z,97910.22
2023-11-23T08:58:19.613Z,97902.94
2023-11-23T09:00:47.510Z,97895.50
2023-11-23T09:03:15.186Z,97892.66
2023-11-23T09:05:43.025Z,97871.97
2023-11-23T09:08:10.762Z,97864.69
2023-11-23T09:10:38.375Z,97864.19
2023-11-23T09:13:07.271Z,97863.72
2023-11-23T09:15:34.891Z,97854.94
2023-11-23T09:18:02.725Z,97846.50
2023-11-23T09:20:30.363Z,97839.53
2023-11-23T09:22:58.078Z,97842.81
2023-11-23T09:25:26.148Z,97836.38
2023-11-23T09:27:54.968Z,97832.38
2023-11-23T09:30:23.938Z,97817.47
2023-11-23T09:32:51.750Z,97786.16
2023-11-23T09:35:20.215Z,97820.25
2023-11-23T09:37:48.502Z,97814.47
2023-11-23T09:40:18.867Z,97807.78
2023-11-23T09:42:49.551Z,97809.69
2023-11-23T09:45:23.098Z,97801.91
2023-11-23T09:47:54.808Z,97793.22
2023-11-23T09:50:22.603Z,97798.47
2023-11-23T09:52:50.628Z,97793.47
2023-11-23T09:55:18.673Z,97810.03
2023-11-23T09:57:46.905Z,97788.97
2023-11-23T10:00:16.158Z,97762.72
2023-11-23T10:02:45.202Z,97782.31
2023-11-23T10:05:16.565Z,97792.91
2023-11-23T10:07:45.045Z,97779.97
2023-11-23T10:10:13.550Z,97768.97
2023-11-23T10:12:41.495Z,97771.50
2023-11-23T10:15:11.637Z,97759.66
2023-11-23T10:17:41.011Z,97761.84
2023-11-23T10:20:11.393Z,97747.84
2023-11-23T10:22:43.956Z,97748.53
2023-11-23T10:25:12.059Z,97729.19
2023-11-23T10:27:39.684Z,97741.59
2023-11-23T10:30:08.735Z,97731.03
2023-11-23T10:32:38.037Z,97725.06
2023-11-23T10:35:10.720Z,97720.41
2023-11-23T10:37:41.069Z,97713.88
2023-11-23T10:42:39.582Z,97707.38
2023-11-23T10:45:08.816Z,97696.66
2023-11-23T10:47:36.999Z,97695.00
2023-11-23T10:50:06.554Z,97691.50
2023-11-23T10:52:37.281Z,97685.81
2023-11-23T10:55:07.334Z,97686.03
2023-11-23T10:57:34.787Z,97679.31
2023-11-23T11:00:04.917Z,97667.03
2023-11-23T11:02:32.740Z,97651.00
2023-11-23T11:05:00.654Z,97667.88
2023-11-23T11:07:28.958Z,97673.19
2023-11-23T11:10:00.486Z,97667.41
2023-11-23T11:12:39.028Z,97664.63
2023-11-23T11:15:08.512Z,97655.66
2023-11-23T11:17:37.467Z,97653.00
2023-11-23T11:20:09.802Z,97658.59
2023-11-23T11:22:37.467Z,97656.66
2023-11-23T11:25:05.756Z,97642.19
2023-11-23T11:27:36.117Z,97646.06
2023-11-23T11:30:06.870Z,97647.47
2023-11-23T11:32:35.041Z,97638.38
2023-11-23T11:35:04.116Z,97639.88
2023-11-23T11:37:32.491Z,97623.91
2023-11-23T11:40:00.889Z,97619.13
2023-11-23T11:42:31.466Z,97607.03
2023-11-23T11:44:59.489Z,97612.53
2023-11-23T11:47:30.734Z,97601.44
2023-11-23T11:49:58.916Z,97600.81
2023-11-23T11:52:27.433Z,97599.91
2023-11-23T11:54:55.237Z,97607.22
2023-11-23T11:57:23.190Z,97609.38
2023-11-23T11:59:52.304Z,97611.00
2023-11-23T12:02:20.385Z,97616.41
2023-11-23T12:04:58.781Z,97614.94
2023-11-23T12:07:26.659Z,97613.53
2023-11-23T12:09:55.578Z,97604.09
2023-11-23T12:12:23.382Z,97595.94
2023-11-23T12:14:51.269Z,97581.88
2023-11-23T12:17:19.047Z,97571.13
2023-11-23T12:19:55.362Z,97563.50
2023-11-23T12:22:24.071Z,97558.25
2023-11-23T12:24:52.303Z,97553.13
2023-11-23T12:27:21.749Z,97554.84
2023-11-23T12:29:49.724Z,97553.69
2023-11-23T12:32:17.969Z,97550.16
2023-11-23T12:34:45.733Z,97544.81
2023-11-23T12:37:15.605Z,97542.25
2023-11-23T12:39:43.257Z,97535.59
2023-11-23T12:42:10.975Z,97524.13
2023-11-23T12:44:38.602Z,97514.44
2023-11-23T12:47:08.180Z,97507.94
2023-11-23T12:49:35.921Z,97494.84
2023-11-23T12:52:03.498Z,97494.59
2023-11-23T12:54:33.964Z,97481.09
2023-11-23T12:57:01.665Z,97469.88
2023-11-23T12:59:29.236Z,97443.03
2023-11-23T13:02:00.004Z,97432.38
2023-11-23T13:04:30.463Z,97465.03
2023-11-23T13:06:59.200Z,97466.72
2023-11-23T13:09:28.785Z,97468.59
2023-11-23T13:11:59.839Z,97469.56
2023-11-23T13:14:27.800Z,97470.34
2023-11-23T13:16:55.381Z,97445.78
2023-11-23T13:19:30.570Z,97435.06
2023-11-23T13:22:05.348Z,97437.19
2023-11-23T13:24:33.787Z,97435.13
2023-11-23T13:27:02.900Z,97442.34
2023-11-23T13:29:30.956Z,97439.69
2023-11-23T13:31:59.557Z,97441.13
2023-11-23T13:34:27.550Z,97446.06
2023-11-23T13:36:55.642Z,97438.28
2023-11-23T13:39:23.644Z,97441.75
2023-11-23T13:41:51.384Z,97442.75
2023-11-23T13:44:21.144Z,97446.03
2023-11-23T13:46:49.051Z,97441.75
2023-11-23T13:49:17.887Z,97432.28
2023-11-23T13:51:46.014Z,97416.25
2023-11-23T13:54:14.799Z,97422.88
2023-11-23T13:56:43.896Z,97408.59
2023-11-23T13:59:12.705Z,97407.06
2023-11-23T14:01:41.947Z,97420.38
2023-11-23T14:04:13.826Z,97419.56
2023-11-23T14:06:42.767Z,97407.13
2023-11-23T14:09:18.950Z,97406.88
2023-11-23T14:11:46.753Z,97408.72
2023-11-23T14:14:14.580Z,97389.47
2023-11-23T14:16:43.725Z,97393.75
2023-11-23T14:19:16.834Z,97385.16
2023-11-23T14:21:45.288Z,97397.44
2023-11-23T14:24:13.024Z,97399.91
2023-11-23T14:26:41.076Z,97385.97
2023-11-23T14:29:10.762Z,97387.41
2023-11-23T14:31:38.906Z,97379.84
2023-11-23T14:34:08.065Z,97367.56
2023-11-23T14:36:35.699Z,97363.44
2023-11-23T14:39:05.547Z,97372.22
2023-11-23T14:41:33.162Z,97371.63
2023-11-23T14:44:00.785Z,97353.38
2023-11-23T14:46:28.653Z,97360.56
2023-11-23T14:48:56.256Z,97359.75
2023-11-23T14:51:29.853Z,97372.63
2023-11-23T14:54:04.161Z,97364.66
2023-11-23T14:56:37.744Z,97350.72
2023-11-23T14:59:06.634Z,97351.72
2023-11-23T15:01:36.327Z,97356.88
2023-11-23T15:04:04.505Z,97345.19
2023-11-23T15:06:34.193Z,97334.75
2023-11-23T15:09:01.879Z,97298.03
2023-11-23T15:11:29.925Z,97319.00
2023-11-23T15:13:58.744Z,97330.66
2023-11-23T15:16:27.500Z,97322.03
2023-11-23T15:18:55.596Z,97343.13
2023-11-23T15:21:23.262Z,97335.75
2023-11-23T15:23:52.202Z,97325.97
2023-11-23T15:26:20.010Z,97311.41
2023-11-23T15:28:47.657Z,97295.44
2023-11-23T15:31:16.822Z,97283.16
2023-11-23T15:33:44.552Z,97250.31
2023-11-23T15:36:13.010Z,97263.91
2023-11-23T15:38:40.649Z,97254.66
2023-11-23T15:41:09.981Z,97257.34
2023-11-23T15:43:37.847Z,97260.22
2023-11-23T15:46:06.856Z,97254.28
2023-11-23T15:48:35.227Z,97244.47
2023-11-23T15:51:02.874Z,97238.13
2023-11-23T15:53:30.515Z,97231.16
2023-11-23T15:55:58.105Z,97238.75
2023-11-23T15:58:27.969Z,97231.56
2023-11-23T16:00:55.507Z,97223.59
2023-11-23T16:03:23.144Z,97210.09
2023-11-23T16:05:51.011Z,97215.00
2023-11-23T16:08:18.633Z,97215.00
2023-11-23T16:10:46.199Z,97217.66
2023-11-23T16:13:19.402Z,97223.63
2023-11-23T16:15:49.098Z,97213.78
2023-11-23T16:18:16.969Z,97203.16
2023-11-23T16:20:46.950Z,97209.31
2023-11-23T16:23:14.607Z,97209.31
2023-11-23T16:25:42.240Z,97205.44
2023-11-23T16:28:09.872Z,97207.50
2023-11-23T16:30:38.016Z,97199.69
2023-11-23T16:33:06.997Z,97189.69
2023-11-23T16:35:34.668Z,97200.13
2023-11-23T16:38:04.669Z,97187.44
2023-11-23T16:40:32.136Z,97196.03
2023-11-23T16:43:00.434Z,97192.16
2023-11-23T16:45:28.017Z,97204.25
2023-11-23T16:47:55.692Z,97209.16
2023-11-23T16:50:24.973Z,97215.94
2023-11-23T16:52:52.552Z,97210.81
2023-11-23T16:55:20.087Z,97215.31
2023-11-23T16:57:48.393Z,97215.75
2023-11-23T17:00:17.085Z,97209.81
2023-11-23T17:02:44.876Z,97204.28
2023-11-23T17:05:14.966Z,97202.03
2023-11-23T17:07:43.902Z,97205.50
2023-11-23T17:10:12.680Z,97207.75
2023-11-23T17:12:40.348Z,97195.66
2023-11-23T17:15:09.090Z,97189.91
2023-11-23T17:17:36.749Z,97184.22
2023-11-23T17:20:04.820Z,97189.31
2023-11-23T17:22:35.541Z,97188.50
2023-11-23T17:25:06.800Z,97185.66
2023-11-23T17:27:34.518Z,97190.75
2023-11-23T17:30:02.147Z,97196.50
2023-11-23T17:32:29.766Z,97188.91
2023-11-23T17:34:57.538Z,97173.97
2023-11-23T17:37:25.158Z,97179.91
2023-11-23T17:39:52.822Z,97167.44
2023-11-23T17:42:21.848Z,97172.56
2023-11-23T17:44:49.980Z,97174.63
2023-11-23T17:47:17.574Z,97176.47
2023-11-23T17:49:46.091Z,97176.47
2023-11-23T17:52:14.621Z,97168.88
2023-11-23T17:54:42.462Z,97160.91
2023-11-23T17:57:10.208Z,97155.16
2023-11-23T17:59:47.346Z,97154.34
2023-11-23T18:02:19.466Z,97145.53
2023-11-23T18:04:52.628Z,97155.78
2023-11-23T18:07:20.374Z,97132.84
2023-11-23T18:09:48.240Z,97133.88
2023-11-23T18:12:15.891Z,97120.13
2023-11-23T18:14:44.958Z,97112.97
2023-11-23T18:17:12.750Z,97109.28
2023-11-23T18:19:40.433Z,97116.06
2023-11-23T18:22:08.980Z,97110.50
2023-11-23T18:24:36.980Z,97108.66
2023-11-23T18:27:07.680Z,97113.38
2023-11-23T18:29:37.207Z,97105.19
2023-11-23T18:32:08.247Z,97101.69
2023-11-23T18:34:35.908Z,97095.97
2023-11-23T18:37:03.676Z,97089.00
2023-11-23T18:39:31.294Z,97082.84
2023-11-23T18:41:59.241Z,97084.28
2023-11-23T18:44:26.979Z,97086.13
2023-11-23T18:46:55.634Z,97084.50
2023-11-23T18:49:29.022Z,97067.28
2023-11-23T18:51:56.623Z,97072.19
2023-11-23T18:54:24.242Z,97072.19
2023-11-23T18:56:51.897Z,97070.75
2023-11-23T18:59:19.571Z,97062.16
2023-11-23T19:01:47.365Z,97068.28
2023-11-23T19:04:15.162Z,97060.69
2023-11-23T19:06:44.228Z,97063.38
2023-11-23T19:09:15.439Z,97064.41
2023-11-23T19:11:43.116Z,97057.22
2023-11-23T19:14:10.940Z,97059.69
2023-11-23T19:16:38.823Z,97033.06
2023-11-23T19:19:08.603Z,97042.88
2023-11-23T19:21:36.910Z,97048.41
2023-11-23T19:24:07.226Z,97034.69
2023-11-23T19:26:35.747Z,97032.22
2023-11-23T19:29:04.223Z,97033.69
2023-11-23T19:31:33.025Z,97019.75
2023-11-23T19:34:01.867Z,97024.88
2023-11-23T19:36:30.133Z,97033.69
2023-11-23T19:38:58.152Z,97026.72
2023-11-23T19:41:28.195Z,97033.25
2023-11-23T19:43:55.940Z,97014.81
2023-11-23T19:46:24.080Z,97016.25
2023-11-23T19:48:52.310Z,97006.81
2023-11-23T19:51:25.108Z,97004.59
2023-11-23T19:53:56.174Z,96998.22
2023-11-23T19:56:25.984Z,96979.19
2023-11-23T19:58:55.229Z,96967.69
2023-11-23T20:01:22.856Z,96968.53
2023-11-23T20:03:50.524Z,96960.53
2023-11-23T20:06:18.322Z,96954.78
2023-11-23T20:08:46.009Z,96957.84
2023-11-23T20:11:14.791Z,96973.22
2023-11-23T20:13:42.681Z,96977.94
2023-11-23T20:16:23.867Z,96947.81
2023-11-23T20:18:57.538Z,96944.72
2023-11-23T20:21:25.229Z,96933.06
2023-11-23T20:23:52.939Z,96930.59
2023-11-23T20:26:20.609Z,96927.09
2023-11-23T20:28:48.268Z,96930.00
2023-11-23T20:31:17.728Z,96926.72
2023-11-23T20:33:45.408Z,96921.19
2023-11-23T20:36:13.306Z,96911.34
2023-11-23T20:38:41.021Z,96911.13
2023-11-23T20:41:08.594Z,96908.06
2023-11-23T20:43:38.359Z,96913.84
2023-11-23T20:46:08.344Z,96905.84
2023-11-23T20:48:37.857Z,96905.84
2023-11-23T20:51:06.400Z,96892.72
2023-11-23T20:53:34.070Z,96875.31
2023-11-23T20:56:02.587Z,96866.34
2023-11-23T20:58:30.575Z,96858.16
2023-11-23T21:01:00.058Z,96848.75
2023-11-23T21:03:29.662Z,96843.03
2023-11-23T21:06:00.244Z,96826.22
2023-11-23T21:08:28.394Z,96818.44
2023-11-23T21:10:56.095Z,96803.50
2023-11-23T21:13:23.644Z,96802.69
2023-11-23T21:15:55.177Z,96798.19
2023-11-23T21:20:50.771Z,96796.53
2023-11-23T21:23:19.825Z,96783.41
2023-11-23T21:25:47.381Z,96779.72
2023-11-23T21:28:15.339Z,96764.34
2023-11-23T21:30:42.989Z,96736.09
2023-11-23T21:33:11.283Z,96732.38
2023-11-23T21:35:39.281Z,96741.81
2023-11-23T21:38:06.937Z,96738.13
2023-11-23T21:40:37.517Z,96724.97
2023-11-23T21:43:05.228Z,96698.81
2023-11-23T21:45:32.825Z,96722.47
2023-11-23T21:48:01.831Z,96688.81
2023-11-23T21:50:29.485Z,96712.88
2023-11-23T21:52:57.149Z,96713.69
2023-11-23T21:55:24.830Z,96703.03
2023-11-23T21:57:53.986Z,96692.16
2023-11-23T22:00:22.257Z,96682.06
2023-11-23T22:02:50.023Z,96671.78
2023-11-23T22:05:17.648Z,96666.03
2023-11-23T22:07:45.280Z,96662.53
2023-11-23T22:10:12.845Z,96657.00
2023-11-23T22:12:40.792Z,96649.00
2023-11-23T22:15:11.964Z,96622.81
2023-11-23T22:17:39.897Z,96614.22
2023-11-23T22:20:09.736Z,96619.53
2023-11-23T22:22:37.975Z,96616.66
2023-11-23T22:25:08.011Z,96606.00
2023-11-23T22:27:36.309Z,96594.78
2023-11-23T22:30:05.225Z,96596.31
2023-11-23T22:32:34.612Z,96590.09
2023-11-23T22:35:02.799Z,96596.09
2023-11-23T22:37:31.390Z,96598.56
2023-11-23T22:39:59.461Z,96579.44
2023-11-23T22:42:27.779Z,96571.63
2023-11-23T22:44:55.925Z,96559.78
2023-11-23T22:47:23.527Z,96565.56
2023-11-23T22:49:52.582Z,96564.66
2023-11-23T22:52:20.246Z,96556.09
2023-11-23T22:54:48.565Z,96560.97
2023-11-23T22:57:16.232Z,96515.50
2023-11-23T22:59:43.930Z,96549.72
2023-11-23T23:02:11.720Z,96548.53
2023-11-23T23:04:40.022Z,96543.81
2023-11-23T23:07:10.033Z,96535.81
2023-11-23T23:09:37.466Z,96537.66
2023-11-23T23:12:05.572Z,96527.22
2023-11-23T23:14:33.466Z,96519.84
2023-11-23T23:17:01.277Z,96507.53
2023-11-23T23:19:28.916Z,96504.84
2023-11-23T23:21:56.900Z,96498.28
2023-11-23T23:24:25.886Z,96482.97
2023-11-23T23:26:53.441Z,96459.66
2023-11-23T23:29:21.658Z,96459.19
2023-11-23T23:31:49.194Z,96454.47
2023-11-23T23:34:16.891Z,96455.06
2023-11-23T23:36:44.510Z,96429.03
2023-11-23T23:39:12.105Z,96453.81
2023-11-23T23:41:41.021Z,96459.94
2023-11-23T23:44:08.608Z,96461.34
2023-11-23T23:46:36.423Z,96461.81
2023-11-23T23:49:04.018Z,96445.59
2023-11-23T23:51:32.922Z,96447.94
2023-11-23T23:54:00.554Z,96435.44
2023-11-23T23:56:28.423Z,96436.25
2023-11-23T23:58:57.328Z,96451.66
